Ocean Outback — 9V8072 — position and weather

sailwx.info

Track history (hours):
 
Tides and Currents Weather Stations Pressure Air Temp Water Temp Dewpoint Dewpoint Depression Visibility Wind Speed Wind Dir Waves Ship Positions

Ocean Outback

Last reported at 2014-Aug-11 00:20 UTC. Time now 2014-Aug-28 01:18 UTC.
Position S 11°51' E 129°48'.
Warning: this ship's position is 17 days out of date.

Length 136 m; draft 7.7 m.

Type: Ship. MMSI: 563745000.

Date/timePositionNaut miles runAvg speedWind from/ knotsBaromVisibWave heightAir tempDewpointWater temp
2014-Aug-11 00:20S 11°51' E 129°48'1011.0
2014-Aug-10 23:27S 11°59' E 129°53'1210.7
2014-Aug-10 22:19S 12°10' E 129°60'7 9.6
2014-Aug-10 21:33S 12°12' E 130°07'9 8.8
2014-Aug-10 20:33S 12°14' E 130°16'9 9.3
2014-Aug-10 19:33S 12°16' E 130°25'10 9.5
2014-Aug-10 18:33S 12°17' E 130°34'9 9.3
2014-Aug-10 17:33S 12°21' E 130°43'8 8.5
2014-Aug-10 16:33S 12°28' E 130°49'5 4.6
2014-Aug-10 15:33S 12°30' E 130°53'0 0.0
2014-Aug-10 14:27S 12°30' E 130°53'0 0.0
2014-Aug-10 13:27S 12°30' E 130°53'0 0.0
2014-Aug-10 12:27S 12°30' E 130°53'0 0.0
2014-Aug-10 11:30S 12°30' E 130°53'0 0.0
2014-Aug-10 10:30S 12°30' E 130°53'0 0.0
2014-Aug-10 09:33S 12°30' E 130°53'0 0.0
2014-Aug-10 08:33S 12°30' E 130°53'0 0.0
2014-Aug-10 07:33S 12°30' E 130°53'0 0.0
2014-Aug-10 06:33S 12°30' E 130°53'0 0.0
2014-Aug-10 05:33S 12°30' E 130°53'0 0.0
2014-Aug-10 04:33S 12°30' E 130°53'0 0.0
2014-Aug-10 03:33S 12°30' E 130°53'0 0.0
2014-Aug-10 02:33S 12°30' E 130°53'0 0.0
2014-Aug-10 01:24S 12°30' E 130°53'0 0.0
2014-Aug-10 00:27S 12°30' E 130°53'0 0.0
2014-Aug-09 23:27S 12°30' E 130°53'0 0.0
2014-Aug-09 22:30S 12°30' E 130°53'0 0.0
2014-Aug-09 21:30S 12°30' E 130°53'0 0.0
2014-Aug-09 20:31S 12°30' E 130°53'3 2.8
2014-Aug-09 19:33S 12°29' E 130°50'8 8.2
2014-Aug-09 18:33S 12°23' E 130°45'6 5.5
2014-Aug-09 17:32S 12°18' E 130°42'0 0.0
2014-Aug-09 16:32S 12°18' E 130°42'0 0.0
2014-Aug-09 15:23S 12°18' E 130°42'0 0.0
2014-Aug-09 14:26S 12°18' E 130°42'0 0.0
2014-Aug-09 13:26S 12°18' E 130°42'0 0.0
2014-Aug-09 12:26S 12°18' E 130°42'0 0.0
2014-Aug-09 11:29S 12°18' E 130°42'0 0.0
2014-Aug-09 10:29S 12°18' E 130°42'0 0.0
2014-Aug-09 09:29S 12°18' E 130°42'0 0.0
2014-Aug-09 08:29S 12°18' E 130°42'0 0.0
2014-Aug-09 07:32S 12°18' E 130°42'0 0.0
2014-Aug-09 06:32S 12°18' E 130°42'0 0.0
2014-Aug-09 05:32S 12°18' E 130°42'0 0.0
2014-Aug-09 04:32S 12°18' E 130°42'0 0.0
2014-Aug-09 03:32S 12°18' E 130°42'0 0.1
2014-Aug-09 02:32S 12°18' E 130°42'0 0.0
2014-Aug-09 01:08S 12°18' E 130°42'0 0.0
2014-Aug-09 00:26S 12°18' E 130°42'0 0.0
2014-Aug-08 23:26S 12°18' E 130°42'0 0.0
2014-Aug-08 22:26S 12°18' E 130°42'0 0.1
2014-Aug-08 21:29S 12°18' E 130°42'0 0.0
2014-Aug-08 20:33S 12°18' E 130°42'5 5.3
2014-Aug-08 19:33S 12°17' E 130°37'7 7.3
2014-Aug-08 18:33S 12°14' E 130°30'8 8.2
2014-Aug-08 17:33S 12°10' E 130°22'9 8.6
2014-Aug-08 16:33S 12°07' E 130°14'9 8.8
2014-Aug-08 15:33S 12°03' E 130°06'9 8.7
2014-Aug-08 14:33S 11°59' E 129°58'8 8.3
2014-Aug-08 13:33S 11°53' E 129°52'8 8.3
2014-Aug-08 12:33S 11°47' E 129°47'8 8.2
2014-Aug-08 11:33S 11°41' E 129°41'  
Track history (hours):
 
Tides and Currents Weather Stations Pressure Air Temp Water Temp Dewpoint Dewpoint Depression Visibility Wind Speed Wind Dir Waves Ship Positions

Ocean Outback

Last reported at 2014-Aug-11 00:20 UTC. Time now 2014-Aug-28 01:18 UTC.
Position S 11°51' E 129°48'.
Warning: this ship's position is 17 days out of date.

Length 136 m; draft 7.7 m.

Type: Ship. MMSI: 563745000.

Date/timePositionNaut miles runAvg speedWind from/ knotsBaromVisibWave heightAir tempDewpointWater temp
2014-Aug-11 00:20S 11°51' E 129°48'1011.0
2014-Aug-10 23:27S 11°59' E 129°53'1210.7
2014-Aug-10 22:19S 12°10' E 129°60'7 9.6
2014-Aug-10 21:33S 12°12' E 130°07'9 8.8
2014-Aug-10 20:33S 12°14' E 130°16'9 9.3
2014-Aug-10 19:33S 12°16' E 130°25'10 9.5
2014-Aug-10 18:33S 12°17' E 130°34'9 9.3
2014-Aug-10 17:33S 12°21' E 130°43'8 8.5
2014-Aug-10 16:33S 12°28' E 130°49'5 4.6
2014-Aug-10 15:33S 12°30' E 130°53'0 0.0
2014-Aug-10 14:27S 12°30' E 130°53'0 0.0
2014-Aug-10 13:27S 12°30' E 130°53'0 0.0
2014-Aug-10 12:27S 12°30' E 130°53'0 0.0
2014-Aug-10 11:30S 12°30' E 130°53'0 0.0
2014-Aug-10 10:30S 12°30' E 130°53'0 0.0
2014-Aug-10 09:33S 12°30' E 130°53'0 0.0
2014-Aug-10 08:33S 12°30' E 130°53'0 0.0
2014-Aug-10 07:33S 12°30' E 130°53'0 0.0
2014-Aug-10 06:33S 12°30' E 130°53'0 0.0
2014-Aug-10 05:33S 12°30' E 130°53'0 0.0
2014-Aug-10 04:33S 12°30' E 130°53'0 0.0
2014-Aug-10 03:33S 12°30' E 130°53'0 0.0
2014-Aug-10 02:33S 12°30' E 130°53'0 0.0
2014-Aug-10 01:24S 12°30' E 130°53'0 0.0
2014-Aug-10 00:27S 12°30' E 130°53'0 0.0
2014-Aug-09 23:27S 12°30' E 130°53'0 0.0
2014-Aug-09 22:30S 12°30' E 130°53'0 0.0
2014-Aug-09 21:30S 12°30' E 130°53'0 0.0
2014-Aug-09 20:31S 12°30' E 130°53'3 2.8
2014-Aug-09 19:33S 12°29' E 130°50'8 8.2
2014-Aug-09 18:33S 12°23' E 130°45'6 5.5
2014-Aug-09 17:32S 12°18' E 130°42'0 0.0
2014-Aug-09 16:32S 12°18' E 130°42'0 0.0
2014-Aug-09 15:23S 12°18' E 130°42'0 0.0
2014-Aug-09 14:26S 12°18' E 130°42'0 0.0
2014-Aug-09 13:26S 12°18' E 130°42'0 0.0
2014-Aug-09 12:26S 12°18' E 130°42'0 0.0
2014-Aug-09 11:29S 12°18' E 130°42'0 0.0
2014-Aug-09 10:29S 12°18' E 130°42'0 0.0
2014-Aug-09 09:29S 12°18' E 130°42'0 0.0
2014-Aug-09 08:29S 12°18' E 130°42'0 0.0
2014-Aug-09 07:32S 12°18' E 130°42'0 0.0
2014-Aug-09 06:32S 12°18' E 130°42'0 0.0
2014-Aug-09 05:32S 12°18' E 130°42'0 0.0
2014-Aug-09 04:32S 12°18' E 130°42'0 0.0
2014-Aug-09 03:32S 12°18' E 130°42'0 0.1
2014-Aug-09 02:32S 12°18' E 130°42'0 0.0
2014-Aug-09 01:08S 12°18' E 130°42'0 0.0
2014-Aug-09 00:26S 12°18' E 130°42'0 0.0
2014-Aug-08 23:26S 12°18' E 130°42'0 0.0
2014-Aug-08 22:26S 12°18' E 130°42'0 0.1
2014-Aug-08 21:29S 12°18' E 130°42'0 0.0
2014-Aug-08 20:33S 12°18' E 130°42'5 5.3
2014-Aug-08 19:33S 12°17' E 130°37'7 7.3
2014-Aug-08 18:33S 12°14' E 130°30'8 8.2
2014-Aug-08 17:33S 12°10' E 130°22'9 8.6
2014-Aug-08 16:33S 12°07' E 130°14'9 8.8
2014-Aug-08 15:33S 12°03' E 130°06'9 8.7
2014-Aug-08 14:33S 11°59' E 129°58'8 8.3
2014-Aug-08 13:33S 11°53' E 129°52'8 8.3
2014-Aug-08 12:33S 11°47' E 129°47'8 8.2
2014-Aug-08 11:33S 11°41' E 129°41'  

Dump ship's entire track history